sensor_id;sensor_type;location;lat;lon;timestamp;P1;P2;P0
55518;PMS5003;41724;51.176;-0.708;2024-02-21T00:00:47;6;4;
55518;PMS5003;41724;51.176;-0.708;2024-02-21T00:03:15;6;5;
55518;PMS5003;41724;51.176;-0.708;2024-02-21T00:05:42;7;6;
55518;PMS5003;41724;51.176;-0.708;2024-02-21T00:08:09;7;6;
55518;PMS5003;41724;51.176;-0.708;2024-02-21T00:10:36;7;6;
55518;PMS5003;41724;51.176;-0.708;2024-02-21T00:13:03;9;6;
55518;PMS5003;41724;51.176;-0.708;2024-02-21T00:15:30;9;8;
55518;PMS5003;41724;51.176;-0.708;2024-02-21T00:17:57;4;4;
55518;PMS5003;41724;51.176;-0.708;2024-02-21T00:20:24;7;6;
55518;PMS5003;41724;51.176;-0.708;2024-02-21T00:22:51;7;7;
55518;PMS5003;41724;51.176;-0.708;2024-02-21T00:25:18;9;7;
55518;PMS5003;41724;51.176;-0.708;2024-02-21T00:27:46;6;4;
55518;PMS5003;41724;51.176;-0.708;2024-02-21T00:30:13;7;7;
55518;PMS5003;41724;51.176;-0.708;2024-02-21T00:32:40;8;7;
55518;PMS5003;41724;51.176;-0.708;2024-02-21T00:35:07;5;4;
55518;PMS5003;41724;51.176;-0.708;2024-02-21T00:37:35;7;6;
55518;PMS5003;41724;51.176;-0.708;2024-02-21T00:40:02;8;5;
55518;PMS5003;41724;51.176;-0.708;2024-02-21T00:42:29;6;6;
55518;PMS5003;41724;51.176;-0.708;2024-02-21T00:44:56;9;7;
55518;PMS5003;41724;51.176;-0.708;2024-02-21T00:47:23;8;7;
55518;PMS5003;41724;51.176;-0.708;2024-02-21T00:49:50;5;5;
55518;PMS5003;41724;51.176;-0.708;2024-02-21T00:52:17;6;6;
55518;PMS5003;41724;51.176;-0.708;2024-02-21T00:54:44;5;4;
55518;PMS5003;41724;51.176;-0.708;2024-02-21T00:57:11;5;4;
55518;PMS5003;41724;51.176;-0.708;2024-02-21T00:59:38;7;5;
55518;PMS5003;41724;51.176;-0.708;2024-02-21T01:02:05;7;5;
55518;PMS5003;41724;51.176;-0.708;2024-02-21T01:04:33;6;6;
55518;PMS5003;41724;51.176;-0.708;2024-02-21T01:07:01;5;4;
55518;PMS5003;41724;51.176;-0.708;2024-02-21T01:09:28;7;5;
55518;PMS5003;41724;51.176;-0.708;2024-02-21T01:11:56;8;6;
55518;PMS5003;41724;51.176;-0.708;2024-02-21T01:14:22;9;6;
55518;PMS5003;41724;51.176;-0.708;2024-02-21T01:16:49;10;8;
55518;PMS5003;41724;51.176;-0.708;2024-02-21T01:19:17;5;5;
55518;PMS5003;41724;51.176;-0.708;2024-02-21T01:21:44;5;5;
55518;PMS5003;41724;51.176;-0.708;2024-02-21T01:24:11;4;4;
55518;PMS5003;41724;51.176;-0.708;2024-02-21T01:26:38;4;4;
55518;PMS5003;41724;51.176;-0.708;2024-02-21T01:29:05;7;6;
55518;PMS5003;41724;51.176;-0.708;2024-02-21T01:31:32;6;4;
55518;PMS5003;41724;51.176;-0.708;2024-02-21T01:33:59;5;5;
55518;PMS5003;41724;51.176;-0.708;2024-02-21T01:36:26;6;4;
55518;PMS5003;41724;51.176;-0.708;2024-02-21T01:38:53;7;6;
55518;PMS5003;41724;51.176;-0.708;2024-02-21T01:41:21;4;4;
55518;PMS5003;41724;51.176;-0.708;2024-02-21T01:43:48;6;5;
55518;PMS5003;41724;51.176;-0.708;2024-02-21T01:46:15;6;4;
55518;PMS5003;41724;51.176;-0.708;2024-02-21T01:48:42;4;4;
55518;PMS5003;41724;51.176;-0.708;2024-02-21T01:51:09;4;4;
55518;PMS5003;41724;51.176;-0.708;2024-02-21T01:53:37;5;5;
55518;PMS5003;41724;51.176;-0.708;2024-02-21T01:56:06;4;3;
55518;PMS5003;41724;51.176;-0.708;2024-02-21T01:58:35;3;3;
55518;PMS5003;41724;51.176;-0.708;2024-02-21T02:01:03;8;5;
55518;PMS5003;41724;51.176;-0.708;2024-02-21T02:03:30;4;4;
55518;PMS5003;41724;51.176;-0.708;2024-02-21T02:05:58;8;5;
55518;PMS5003;41724;51.176;-0.708;2024-02-21T02:08:25;5;5;
55518;PMS5003;41724;51.176;-0.708;2024-02-21T02:10:53;8;4;
55518;PMS5003;41724;51.176;-0.708;2024-02-21T02:13:20;7;4;
55518;PMS5003;41724;51.176;-0.708;2024-02-21T02:15:48;4;4;
55518;PMS5003;41724;51.176;-0.708;2024-02-21T02:18:15;4;4;
55518;PMS5003;41724;51.176;-0.708;2024-02-21T02:20:44;3;3;
55518;PMS5003;41724;51.176;-0.708;2024-02-21T02:25:45;7;5;
55518;PMS5003;41724;51.176;-0.708;2024-02-21T02:28:13;7;6;
55518;PMS5003;41724;51.176;-0.708;2024-02-21T02:30:40;5;5;
55518;PMS5003;41724;51.176;-0.708;2024-02-21T02:33:07;4;3;
55518;PMS5003;41724;51.176;-0.708;2024-02-21T02:35:34;5;4;
55518;PMS5003;41724;51.176;-0.708;2024-02-21T02:38:00;3;3;
55518;PMS5003;41724;51.176;-0.708;2024-02-21T02:40:29;8;7;
55518;PMS5003;41724;51.176;-0.708;2024-02-21T02:42:56;5;4;
55518;PMS5003;41724;51.176;-0.708;2024-02-21T02:45:23;3;3;
55518;PMS5003;41724;51.176;-0.708;2024-02-21T02:47:52;5;4;
55518;PMS5003;41724;51.176;-0.708;2024-02-21T02:50:19;3;3;
55518;PMS5003;41724;51.176;-0.708;2024-02-21T02:52:46;5;5;
55518;PMS5003;41724;51.176;-0.708;2024-02-21T02:55:12;4;4;
55518;PMS5003;41724;51.176;-0.708;2024-02-21T02:57:40;5;5;
55518;PMS5003;41724;51.176;-0.708;2024-02-21T03:00:07;4;3;
55518;PMS5003;41724;51.176;-0.708;2024-02-21T03:02:38;13;10;
55518;PMS5003;41724;51.176;-0.708;2024-02-21T03:05:11;4;4;
55518;PMS5003;41724;51.176;-0.708;2024-02-21T03:07:39;4;3;
55518;PMS5003;41724;51.176;-0.708;2024-02-21T03:10:07;5;5;
55518;PMS5003;41724;51.176;-0.708;2024-02-21T03:12:34;4;4;
55518;PMS5003;41724;51.176;-0.708;2024-02-21T03:15:01;4;3;
55518;PMS5003;41724;51.176;-0.708;2024-02-21T03:17:29;5;3;
55518;PMS5003;41724;51.176;-0.708;2024-02-21T03:19:56;4;3;
55518;PMS5003;41724;51.176;-0.708;2024-02-21T03:22:24;3;3;
55518;PMS5003;41724;51.176;-0.708;2024-02-21T03:24:51;5;5;
55518;PMS5003;41724;51.176;-0.708;2024-02-21T03:27:18;5;4;
55518;PMS5003;41724;51.176;-0.708;2024-02-21T03:29:45;6;6;
55518;PMS5003;41724;51.176;-0.708;2024-02-21T03:32:12;2;2;
55518;PMS5003;41724;51.176;-0.708;2024-02-21T03:34:39;5;5;
55518;PMS5003;41724;51.176;-0.708;2024-02-21T03:37:06;4;4;
55518;PMS5003;41724;51.176;-0.708;2024-02-21T03:39:33;5;4;
55518;PMS5003;41724;51.176;-0.708;2024-02-21T03:42:01;5;3;
55518;PMS5003;41724;51.176;-0.708;2024-02-21T03:44:29;4;4;
55518;PMS5003;41724;51.176;-0.708;2024-02-21T03:46:56;5;3;
55518;PMS5003;41724;51.176;-0.708;2024-02-21T03:49:23;3;2;
55518;PMS5003;41724;51.176;-0.708;2024-02-21T03:51:51;3;3;
55518;PMS5003;41724;51.176;-0.708;2024-02-21T03:54:18;7;5;
55518;PMS5003;41724;51.176;-0.708;2024-02-21T03:56:45;5;4;
55518;PMS5003;41724;51.176;-0.708;2024-02-21T03:59:12;4;3;
55518;PMS5003;41724;51.176;-0.708;2024-02-21T04:01:39;5;4;
55518;PMS5003;41724;51.176;-0.708;2024-02-21T04:04:06;5;5;
55518;PMS5003;41724;51.176;-0.708;2024-02-21T04:06:33;7;7;
55518;PMS5003;41724;51.176;-0.708;2024-02-21T04:09:00;4;4;
55518;PMS5003;41724;51.176;-0.708;2024-02-21T04:11:28;5;4;
55518;PMS5003;41724;51.176;-0.708;2024-02-21T04:13:55;4;3;
55518;PMS5003;41724;51.176;-0.708;2024-02-21T04:16:22;5;5;
55518;PMS5003;41724;51.176;-0.708;2024-02-21T04:18:49;5;4;
55518;PMS5003;41724;51.176;-0.708;2024-02-21T04:21:16;3;3;
55518;PMS5003;41724;51.176;-0.708;2024-02-21T04:23:43;3;3;
55518;PMS5003;41724;51.176;-0.708;2024-02-21T04:26:10;5;4;
55518;PMS5003;41724;51.176;-0.708;2024-02-21T04:28:37;5;4;
55518;PMS5003;41724;51.176;-0.708;2024-02-21T04:31:05;3;3;
55518;PMS5003;41724;51.176;-0.708;2024-02-21T04:33:32;2;2;
55518;PMS5003;41724;51.176;-0.708;2024-02-21T04:35:59;5;4;
55518;PMS5003;41724;51.176;-0.708;2024-02-21T04:38:26;2;2;
55518;PMS5003;41724;51.176;-0.708;2024-02-21T04:40:54;3;2;
55518;PMS5003;41724;51.176;-0.708;2024-02-21T04:43:21;4;3;
55518;PMS5003;41724;51.176;-0.708;2024-02-21T04:45:48;5;4;
55518;PMS5003;41724;51.176;-0.708;2024-02-21T04:48:16;4;4;
55518;PMS5003;41724;51.176;-0.708;2024-02-21T04:50:43;4;3;
55518;PMS5003;41724;51.176;-0.708;2024-02-21T04:53:10;5;4;
55518;PMS5003;41724;51.176;-0.708;2024-02-21T04:55:37;5;5;
55518;PMS5003;41724;51.176;-0.708;2024-02-21T04:58:04;6;4;
55518;PMS5003;41724;51.176;-0.708;2024-02-21T05:00:31;4;3;
55518;PMS5003;41724;51.176;-0.708;2024-02-21T05:02:59;5;5;
55518;PMS5003;41724;51.176;-0.708;2024-02-21T05:05:25;4;3;
55518;PMS5003;41724;51.176;-0.708;2024-02-21T05:07:52;4;3;
55518;PMS5003;41724;51.176;-0.708;2024-02-21T05:10:19;3;3;
55518;PMS5003;41724;51.176;-0.708;2024-02-21T05:12:47;2;2;
55518;PMS5003;41724;51.176;-0.708;2024-02-21T05:15:14;3;3;
55518;PMS5003;41724;51.176;-0.708;2024-02-21T05:17:41;3;2;
55518;PMS5003;41724;51.176;-0.708;2024-02-21T05:20:08;5;4;
55518;PMS5003;41724;51.176;-0.708;2024-02-21T05:22:36;4;4;
55518;PMS5003;41724;51.176;-0.708;2024-02-21T05:25:03;3;2;
55518;PMS5003;41724;51.176;-0.708;2024-02-21T05:27:31;3;2;
55518;PMS5003;41724;51.176;-0.708;2024-02-21T05:29:58;2;2;
55518;PMS5003;41724;51.176;-0.708;2024-02-21T05:32:25;2;2;
55518;PMS5003;41724;51.176;-0.708;2024-02-21T05:34:53;5;4;
55518;PMS5003;41724;51.176;-0.708;2024-02-21T05:37:19;2;2;
55518;PMS5003;41724;51.176;-0.708;2024-02-21T05:39:46;5;4;
55518;PMS5003;41724;51.176;-0.708;2024-02-21T05:42:14;3;3;
55518;PMS5003;41724;51.176;-0.708;2024-02-21T05:44:41;2;2;
55518;PMS5003;41724;51.176;-0.708;2024-02-21T05:47:08;4;2;
55518;PMS5003;41724;51.176;-0.708;2024-02-21T05:49:36;7;4;
55518;PMS5003;41724;51.176;-0.708;2024-02-21T05:52:03;3;3;
55518;PMS5003;41724;51.176;-0.708;2024-02-21T05:54:31;3;2;
55518;PMS5003;41724;51.176;-0.708;2024-02-21T05:56:58;2;2;
55518;PMS5003;41724;51.176;-0.708;2024-02-21T05:59:25;2;1;
55518;PMS5003;41724;51.176;-0.708;2024-02-21T06:01:56;2;2;
55518;PMS5003;41724;51.176;-0.708;2024-02-21T06:04:22;2;2;
55518;PMS5003;41724;51.176;-0.708;2024-02-21T06:06:50;1;1;
55518;PMS5003;41724;51.176;-0.708;2024-02-21T06:09:17;1;1;
55518;PMS5003;41724;51.176;-0.708;2024-02-21T06:11:44;1;1;
55518;PMS5003;41724;51.176;-0.708;2024-02-21T06:14:11;1;1;
55518;PMS5003;41724;51.176;-0.708;2024-02-21T06:16:38;1;0;
55518;PMS5003;41724;51.176;-0.708;2024-02-21T06:19:06;2;1;
55518;PMS5003;41724;51.176;-0.708;2024-02-21T06:21:33;2;2;
55518;PMS5003;41724;51.176;-0.708;2024-02-21T06:24:00;1;1;
55518;PMS5003;41724;51.176;-0.708;2024-02-21T06:26:27;3;1;
55518;PMS5003;41724;51.176;-0.708;2024-02-21T06:28:55;2;1;
55518;PMS5003;41724;51.176;-0.708;2024-02-21T06:31:22;1;1;
55518;PMS5003;41724;51.176;-0.708;2024-02-21T06:33:49;1;1;
55518;PMS5003;41724;51.176;-0.708;2024-02-21T06:36:16;1;1;
55518;PMS5003;41724;51.176;-0.708;2024-02-21T06:38:43;1;1;
55518;PMS5003;41724;51.176;-0.708;2024-02-21T06:41:14;1;1;
55518;PMS5003;41724;51.176;-0.708;2024-02-21T06:43:42;2;1;
55518;PMS5003;41724;51.176;-0.708;2024-02-21T06:46:09;2;2;
55518;PMS5003;41724;51.176;-0.708;2024-02-21T06:48:36;1;1;
55518;PMS5003;41724;51.176;-0.708;2024-02-21T06:51:03;3;3;
55518;PMS5003;41724;51.176;-0.708;2024-02-21T06:53:30;2;2;
55518;PMS5003;41724;51.176;-0.708;2024-02-21T06:55:58;3;3;
55518;PMS5003;41724;51.176;-0.708;2024-02-21T06:58:25;3;3;
55518;PMS5003;41724;51.176;-0.708;2024-02-21T07:00:52;3;3;
55518;PMS5003;41724;51.176;-0.708;2024-02-21T07:03:19;2;2;
55518;PMS5003;41724;51.176;-0.708;2024-02-21T07:05:46;3;3;
55518;PMS5003;41724;51.176;-0.708;2024-02-21T07:08:13;3;3;
55518;PMS5003;41724;51.176;-0.708;2024-02-21T07:10:40;6;3;
55518;PMS5003;41724;51.176;-0.708;2024-02-21T07:13:07;3;3;
55518;PMS5003;41724;51.176;-0.708;2024-02-21T07:15:34;3;3;
55518;PMS5003;41724;51.176;-0.708;2024-02-21T07:18:02;2;2;
55518;PMS5003;41724;51.176;-0.708;2024-02-21T07:20:29;3;3;
55518;PMS5003;41724;51.176;-0.708;2024-02-21T07:22:56;6;4;
55518;PMS5003;41724;51.176;-0.708;2024-02-21T07:25:24;5;5;
55518;PMS5003;41724;51.176;-0.708;2024-02-21T07:27:51;3;3;
55518;PMS5003;41724;51.176;-0.708;2024-02-21T07:30:18;3;3;
55518;PMS5003;41724;51.176;-0.708;2024-02-21T07:32:45;3;3;
55518;PMS5003;41724;51.176;-0.708;2024-02-21T07:35:15;3;3;
55518;PMS5003;41724;51.176;-0.708;2024-02-21T07:37:42;3;3;
55518;PMS5003;41724;51.176;-0.708;2024-02-21T07:40:14;2;2;
55518;PMS5003;41724;51.176;-0.708;2024-02-21T07:42:41;3;2;
55518;PMS5003;41724;51.176;-0.708;2024-02-21T07:45:09;3;2;
55518;PMS5003;41724;51.176;-0.708;2024-02-21T07:47:36;2;2;
55518;PMS5003;41724;51.176;-0.708;2024-02-21T07:50:04;3;3;
55518;PMS5003;41724;51.176;-0.708;2024-02-21T07:52:31;4;4;
55518;PMS5003;41724;51.176;-0.708;2024-02-21T07:54:59;5;4;
55518;PMS5003;41724;51.176;-0.708;2024-02-21T07:57:26;3;3;
55518;PMS5003;41724;51.176;-0.708;2024-02-21T07:59:53;3;3;
55518;PMS5003;41724;51.176;-0.708;2024-02-21T08:02:21;2;2;
55518;PMS5003;41724;51.176;-0.708;2024-02-21T08:04:48;2;2;
55518;PMS5003;41724;51.176;-0.708;2024-02-21T08:07:15;5;3;
55518;PMS5003;41724;51.176;-0.708;2024-02-21T08:09:42;6;4;
55518;PMS5003;41724;51.176;-0.708;2024-02-21T08:12:09;2;2;
55518;PMS5003;41724;51.176;-0.708;2024-02-21T08:14:36;3;2;
55518;PMS5003;41724;51.176;-0.708;2024-02-21T08:17:04;1;1;
55518;PMS5003;41724;51.176;-0.708;2024-02-21T08:19:31;2;2;
55518;PMS5003;41724;51.176;-0.708;2024-02-21T08:21:58;2;2;
55518;PMS5003;41724;51.176;-0.708;2024-02-21T08:24:25;3;3;
55518;PMS5003;41724;51.176;-0.708;2024-02-21T08:26:52;2;2;
55518;PMS5003;41724;51.176;-0.708;2024-02-21T08:29:19;1;1;
55518;PMS5003;41724;51.176;-0.708;2024-02-21T08:31:48;3;2;
55518;PMS5003;41724;51.176;-0.708;2024-02-21T08:34:15;2;2;
55518;PMS5003;41724;51.176;-0.708;2024-02-21T08:36:42;2;2;
55518;PMS5003;41724;51.176;-0.708;2024-02-21T08:39:10;1;1;
55518;PMS5003;41724;51.176;-0.708;2024-02-21T08:41:37;1;1;
55518;PMS5003;41724;51.176;-0.708;2024-02-21T08:44:04;1;1;
55518;PMS5003;41724;51.176;-0.708;2024-02-21T08:46:31;2;1;
55518;PMS5003;41724;51.176;-0.708;2024-02-21T08:48:58;1;1;
55518;PMS5003;41724;51.176;-0.708;2024-02-21T08:51:26;4;3;
55518;PMS5003;41724;51.176;-0.708;2024-02-21T08:53:53;2;2;
55518;PMS5003;41724;51.176;-0.708;2024-02-21T08:56:20;4;2;
55518;PMS5003;41724;51.176;-0.708;2024-02-21T08:58:47;1;1;
55518;PMS5003;41724;51.176;-0.708;2024-02-21T09:01:14;2;2;
55518;PMS5003;41724;51.176;-0.708;2024-02-21T09:03:41;3;2;
55518;PMS5003;41724;51.176;-0.708;2024-02-21T09:06:09;2;2;
55518;PMS5003;41724;51.176;-0.708;2024-02-21T09:08:37;5;4;
55518;PMS5003;41724;51.176;-0.708;2024-02-21T09:11:05;2;2;
55518;PMS5003;41724;51.176;-0.708;2024-02-21T09:13:33;2;2;
55518;PMS5003;41724;51.176;-0.708;2024-02-21T09:16:00;2;2;
55518;PMS5003;41724;51.176;-0.708;2024-02-21T09:18:27;1;1;
55518;PMS5003;41724;51.176;-0.708;2024-02-21T09:20:54;1;1;
55518;PMS5003;41724;51.176;-0.708;2024-02-21T09:23:23;1;1;
55518;PMS5003;41724;51.176;-0.708;2024-02-21T09:25:51;1;1;
55518;PMS5003;41724;51.176;-0.708;2024-02-21T09:28:18;2;2;
55518;PMS5003;41724;51.176;-0.708;2024-02-21T09:30:45;2;1;
55518;PMS5003;41724;51.176;-0.708;2024-02-21T09:33:12;2;2;
55518;PMS5003;41724;51.176;-0.708;2024-02-21T09:35:39;2;2;
55518;PMS5003;41724;51.176;-0.708;2024-02-21T09:38:07;1;1;
55518;PMS5003;41724;51.176;-0.708;2024-02-21T09:40:34;1;1;
55518;PMS5003;41724;51.176;-0.708;2024-02-21T09:43:02;2;2;
55518;PMS5003;41724;51.176;-0.708;2024-02-21T09:45:30;0;0;
55518;PMS5003;41724;51.176;-0.708;2024-02-21T09:48:04;1;1;
55518;PMS5003;41724;51.176;-0.708;2024-02-21T09:50:44;0;0;
55518;PMS5003;41724;51.176;-0.708;2024-02-21T09:53:13;1;1;
55518;PMS5003;41724;51.176;-0.708;2024-02-21T09:55:41;1;1;
55518;PMS5003;41724;51.176;-0.708;2024-02-21T09:58:10;1;1;
55518;PMS5003;41724;51.176;-0.708;2024-02-21T10:00:38;0;0;
55518;PMS5003;41724;51.176;-0.708;2024-02-21T10:03:05;2;0;
55518;PMS5003;41724;51.176;-0.708;2024-02-21T10:05:32;1;1;
55518;PMS5003;41724;51.176;-0.708;2024-02-21T10:07:59;1;1;
55518;PMS5003;41724;51.176;-0.708;2024-02-21T10:10:26;1;1;
55518;PMS5003;41724;51.176;-0.708;2024-02-21T10:12:53;1;1;
55518;PMS5003;41724;51.176;-0.708;2024-02-21T10:15:21;1;1;
55518;PMS5003;41724;51.176;-0.708;2024-02-21T10:17:49;2;1;
55518;PMS5003;41724;51.176;-0.708;2024-02-21T10:20:17;1;1;
55518;PMS5003;41724;51.176;-0.708;2024-02-21T10:22:44;1;1;
55518;PMS5003;41724;51.176;-0.708;2024-02-21T10:25:11;1;1;
55518;PMS5003;41724;51.176;-0.708;2024-02-21T10:27:39;0;0;
55518;PMS5003;41724;51.176;-0.708;2024-02-21T10:30:08;2;1;
55518;PMS5003;41724;51.176;-0.708;2024-02-21T10:32:48;0;0;
55518;PMS5003;41724;51.176;-0.708;2024-02-21T10:35:24;0;0;
55518;PMS5003;41724;51.176;-0.708;2024-02-21T10:37:53;1;1;
55518;PMS5003;41724;51.176;-0.708;2024-02-21T10:40:22;0;0;
55518;PMS5003;41724;51.176;-0.708;2024-02-21T10:42:51;1;1;
55518;PMS5003;41724;51.176;-0.708;2024-02-21T10:45:24;1;1;
55518;PMS5003;41724;51.176;-0.708;2024-02-21T10:48:00;1;1;
55518;PMS5003;41724;51.176;-0.708;2024-02-21T10:50:39;2;2;
55518;PMS5003;41724;51.176;-0.708;2024-02-21T10:53:21;0;0;
55518;PMS5003;41724;51.176;-0.708;2024-02-21T10:56:06;0;0;
55518;PMS5003;41724;51.176;-0.708;2024-02-21T10:58:43;1;1;
55518;PMS5003;41724;51.176;-0.708;2024-02-21T11:01:12;1;1;
55518;PMS5003;41724;51.176;-0.708;2024-02-21T11:03:39;1;0;
55518;PMS5003;41724;51.176;-0.708;2024-02-21T11:06:07;1;1;
55518;PMS5003;41724;51.176;-0.708;2024-02-21T11:08:36;0;0;
55518;PMS5003;41724;51.176;-0.708;2024-02-21T11:11:04;1;1;
55518;PMS5003;41724;51.176;-0.708;2024-02-21T11:13:32;1;0;
55518;PMS5003;41724;51.176;-0.708;2024-02-21T11:16:09;0;0;
55518;PMS5003;41724;51.176;-0.708;2024-02-21T11:18:37;1;1;
55518;PMS5003;41724;51.176;-0.708;2024-02-21T11:21:04;1;1;
55518;PMS5003;41724;51.176;-0.708;2024-02-21T11:23:31;0;0;
55518;PMS5003;41724;51.176;-0.708;2024-02-21T11:26:08;0;0;
55518;PMS5003;41724;51.176;-0.708;2024-02-21T11:28:35;0;0;
55518;PMS5003;41724;51.176;-0.708;2024-02-21T11:31:06;0;0;
55518;PMS5003;41724;51.176;-0.708;2024-02-21T11:33:39;1;1;
55518;PMS5003;41724;51.176;-0.708;2024-02-21T11:36:06;2;1;
55518;PMS5003;41724;51.176;-0.708;2024-02-21T11:38:34;0;0;
55518;PMS5003;41724;51.176;-0.708;2024-02-21T11:41:01;0;0;
55518;PMS5003;41724;51.176;-0.708;2024-02-21T11:43:29;0;0;
55518;PMS5003;41724;51.176;-0.708;2024-02-21T11:46:00;1;0;
55518;PMS5003;41724;51.176;-0.708;2024-02-21T11:48:27;0;0;
55518;PMS5003;41724;51.176;-0.708;2024-02-21T11:50:54;0;0;
55518;PMS5003;41724;51.176;-0.708;2024-02-21T11:53:22;0;0;
55518;PMS5003;41724;51.176;-0.708;2024-02-21T11:55:49;0;0;
55518;PMS5003;41724;51.176;-0.708;2024-02-21T11:58:16;0;0;
55518;PMS5003;41724;51.176;-0.708;2024-02-21T12:00:44;0;0;
55518;PMS5003;41724;51.176;-0.708;2024-02-21T12:03:11;0;0;
55518;PMS5003;41724;51.176;-0.708;2024-02-21T12:05:38;0;0;
55518;PMS5003;41724;51.176;-0.708;2024-02-21T12:08:05;1;1;
55518;PMS5003;41724;51.176;-0.708;2024-02-21T12:10:32;0;0;
55518;PMS5003;41724;51.176;-0.708;2024-02-21T12:13:08;0;0;
55518;PMS5003;41724;51.176;-0.708;2024-02-21T12:15:35;0;0;
55518;PMS5003;41724;51.176;-0.708;2024-02-21T12:18:02;0;0;
55518;PMS5003;41724;51.176;-0.708;2024-02-21T12:20:30;0;0;
55518;PMS5003;41724;51.176;-0.708;2024-02-21T12:22:59;1;0;
55518;PMS5003;41724;51.176;-0.708;2024-02-21T12:25:27;1;1;
55518;PMS5003;41724;51.176;-0.708;2024-02-21T12:27:55;0;0;
55518;PMS5003;41724;51.176;-0.708;2024-02-21T12:30:22;1;1;
55518;PMS5003;41724;51.176;-0.708;2024-02-21T12:32:49;0;0;
55518;PMS5003;41724;51.176;-0.708;2024-02-21T12:35:16;1;1;
55518;PMS5003;41724;51.176;-0.708;2024-02-21T12:37:43;0;0;
55518;PMS5003;41724;51.176;-0.708;2024-02-21T12:40:11;0;0;
55518;PMS5003;41724;51.176;-0.708;2024-02-21T12:42:37;0;0;
55518;PMS5003;41724;51.176;-0.708;2024-02-21T12:45:05;0;0;
55518;PMS5003;41724;51.176;-0.708;2024-02-21T12:47:33;0;0;
55518;PMS5003;41724;51.176;-0.708;2024-02-21T12:50:00;0;0;
55518;PMS5003;41724;51.176;-0.708;2024-02-21T12:52:27;0;0;
55518;PMS5003;41724;51.176;-0.708;2024-02-21T12:54:54;1;0;
55518;PMS5003;41724;51.176;-0.708;2024-02-21T12:57:21;0;0;
55518;PMS5003;41724;51.176;-0.708;2024-02-21T12:59:48;0;0;
55518;PMS5003;41724;51.176;-0.708;2024-02-21T13:02:15;0;0;
55518;PMS5003;41724;51.176;-0.708;2024-02-21T13:04:42;0;0;
55518;PMS5003;41724;51.176;-0.708;2024-02-21T13:07:09;0;0;
55518;PMS5003;41724;51.176;-0.708;2024-02-21T13:09:36;0;0;
55518;PMS5003;41724;51.176;-0.708;2024-02-21T13:12:04;0;0;
55518;PMS5003;41724;51.176;-0.708;2024-02-21T13:14:31;0;0;
55518;PMS5003;41724;51.176;-0.708;2024-02-21T13:16:58;0;0;
55518;PMS5003;41724;51.176;-0.708;2024-02-21T13:19:25;0;0;
55518;PMS5003;41724;51.176;-0.708;2024-02-21T13:21:52;3;0;
55518;PMS5003;41724;51.176;-0.708;2024-02-21T13:24:19;1;0;
55518;PMS5003;41724;51.176;-0.708;2024-02-21T13:26:46;2;2;
55518;PMS5003;41724;51.176;-0.708;2024-02-21T13:29:13;0;0;
55518;PMS5003;41724;51.176;-0.708;2024-02-21T13:31:40;1;1;
55518;PMS5003;41724;51.176;-0.708;2024-02-21T13:34:07;1;1;
55518;PMS5003;41724;51.176;-0.708;2024-02-21T13:36:35;0;0;
55518;PMS5003;41724;51.176;-0.708;2024-02-21T13:39:02;0;0;
55518;PMS5003;41724;51.176;-0.708;2024-02-21T13:41:29;0;0;
55518;PMS5003;41724;51.176;-0.708;2024-02-21T13:43:57;0;0;
55518;PMS5003;41724;51.176;-0.708;2024-02-21T13:46:24;0;0;
55518;PMS5003;41724;51.176;-0.708;2024-02-21T13:48:51;0;0;
55518;PMS5003;41724;51.176;-0.708;2024-02-21T13:51:22;0;0;
55518;PMS5003;41724;51.176;-0.708;2024-02-21T13:53:50;1;0;
55518;PMS5003;41724;51.176;-0.708;2024-02-21T13:56:16;0;0;
55518;PMS5003;41724;51.176;-0.708;2024-02-21T13:58:44;0;0;
55518;PMS5003;41724;51.176;-0.708;2024-02-21T14:01:11;1;1;
55518;PMS5003;41724;51.176;-0.708;2024-02-21T14:03:38;0;0;
55518;PMS5003;41724;51.176;-0.708;2024-02-21T14:06:05;1;0;
55518;PMS5003;41724;51.176;-0.708;2024-02-21T14:08:32;2;1;
55518;PMS5003;41724;51.176;-0.708;2024-02-21T14:10:59;2;2;
55518;PMS5003;41724;51.176;-0.708;2024-02-21T14:13:26;0;0;
55518;PMS5003;41724;51.176;-0.708;2024-02-21T14:15:54;0;0;
55518;PMS5003;41724;51.176;-0.708;2024-02-21T14:18:21;0;0;
55518;PMS5003;41724;51.176;-0.708;2024-02-21T14:20:48;1;1;
55518;PMS5003;41724;51.176;-0.708;2024-02-21T14:23:15;0;0;
55518;PMS5003;41724;51.176;-0.708;2024-02-21T14:25:42;0;0;
55518;PMS5003;41724;51.176;-0.708;2024-02-21T14:28:09;0;0;
55518;PMS5003;41724;51.176;-0.708;2024-02-21T14:30:36;0;0;
55518;PMS5003;41724;51.176;-0.708;2024-02-21T14:33:03;0;0;
55518;PMS5003;41724;51.176;-0.708;2024-02-21T14:35:30;0;0;
55518;PMS5003;41724;51.176;-0.708;2024-02-21T14:37:57;0;0;
55518;PMS5003;41724;51.176;-0.708;2024-02-21T14:40:24;0;0;
55518;PMS5003;41724;51.176;-0.708;2024-02-21T14:42:52;0;0;
55518;PMS5003;41724;51.176;-0.708;2024-02-21T14:45:19;0;0;
55518;PMS5003;41724;51.176;-0.708;2024-02-21T14:47:46;0;0;
55518;PMS5003;41724;51.176;-0.708;2024-02-21T14:50:13;0;0;
55518;PMS5003;41724;51.176;-0.708;2024-02-21T14:52:40;1;1;
55518;PMS5003;41724;51.176;-0.708;2024-02-21T14:55:07;1;0;
55518;PMS5003;41724;51.176;-0.708;2024-02-21T14:57:34;0;0;
55518;PMS5003;41724;51.176;-0.708;2024-02-21T15:00:01;0;0;
55518;PMS5003;41724;51.176;-0.708;2024-02-21T15:02:28;0;0;
55518;PMS5003;41724;51.176;-0.708;2024-02-21T15:04:56;1;1;
55518;PMS5003;41724;51.176;-0.708;2024-02-21T15:07:23;1;1;
55518;PMS5003;41724;51.176;-0.708;2024-02-21T15:09:51;1;0;
55518;PMS5003;41724;51.176;-0.708;2024-02-21T15:12:18;0;0;
55518;PMS5003;41724;51.176;-0.708;2024-02-21T15:14:45;0;0;
55518;PMS5003;41724;51.176;-0.708;2024-02-21T15:17:12;0;0;
55518;PMS5003;41724;51.176;-0.708;2024-02-21T15:19:39;0;0;
55518;PMS5003;41724;51.176;-0.708;2024-02-21T15:22:06;0;0;
55518;PMS5003;41724;51.176;-0.708;2024-02-21T15:24:33;0;0;
55518;PMS5003;41724;51.176;-0.708;2024-02-21T15:27:00;1;1;
55518;PMS5003;41724;51.176;-0.708;2024-02-21T15:29:27;1;0;
55518;PMS5003;41724;51.176;-0.708;2024-02-21T15:31:55;1;1;
55518;PMS5003;41724;51.176;-0.708;2024-02-21T15:34:22;1;1;
55518;PMS5003;41724;51.176;-0.708;2024-02-21T15:36:49;0;0;
55518;PMS5003;41724;51.176;-0.708;2024-02-21T15:39:16;1;0;
55518;PMS5003;41724;51.176;-0.708;2024-02-21T15:41:43;2;2;
55518;PMS5003;41724;51.176;-0.708;2024-02-21T15:44:10;0;0;
55518;PMS5003;41724;51.176;-0.708;2024-02-21T15:46:38;0;0;
55518;PMS5003;41724;51.176;-0.708;2024-02-21T15:49:05;1;0;
55518;PMS5003;41724;51.176;-0.708;2024-02-21T15:51:32;1;1;
55518;PMS5003;41724;51.176;-0.708;2024-02-21T15:54:00;1;0;
55518;PMS5003;41724;51.176;-0.708;2024-02-21T15:56:27;1;1;
55518;PMS5003;41724;51.176;-0.708;2024-02-21T15:58:54;0;0;
55518;PMS5003;41724;51.176;-0.708;2024-02-21T16:01:21;4;2;
55518;PMS5003;41724;51.176;-0.708;2024-02-21T16:03:48;3;3;
55518;PMS5003;41724;51.176;-0.708;2024-02-21T16:06:15;2;2;
55518;PMS5003;41724;51.176;-0.708;2024-02-21T16:08:42;3;3;
55518;PMS5003;41724;51.176;-0.708;2024-02-21T16:11:09;2;2;
55518;PMS5003;41724;51.176;-0.708;2024-02-21T16:13:39;5;4;
55518;PMS5003;41724;51.176;-0.708;2024-02-21T16:16:06;3;3;
55518;PMS5003;41724;51.176;-0.708;2024-02-21T16:18:34;0;0;
55518;PMS5003;41724;51.176;-0.708;2024-02-21T16:21:01;3;3;
55518;PMS5003;41724;51.176;-0.708;2024-02-21T16:23:28;2;2;
55518;PMS5003;41724;51.176;-0.708;2024-02-21T16:25:55;3;2;
55518;PMS5003;41724;51.176;-0.708;2024-02-21T16:28:22;4;4;
55518;PMS5003;41724;51.176;-0.708;2024-02-21T16:30:50;2;2;
55518;PMS5003;41724;51.176;-0.708;2024-02-21T16:33:17;3;2;
55518;PMS5003;41724;51.176;-0.708;2024-02-21T16:35:44;2;1;
55518;PMS5003;41724;51.176;-0.708;2024-02-21T16:38:11;2;2;